Time;durP1;ratioP1;P1;durP2;ratioP2;P2;SDS_P1;SDS_P2;PMS_P1;PMS_P2;Temp;Humidity;BMP_temperature;BMP_pressure;BME280_temperature;BME280_humidity;BME280_pressure;Samples;Min_cycle;Max_cycle;Signal;HPM_P1;HPM_P2
2024/04/20 00:01:07;;;;;;;12.67;2.50;;;;;;;;;;5521208;25;20335;-73
2024/04/20 00:03:33;;;;;;;16.33;2.60;;;;;;;;;;5511195;25;20689;-72
2024/04/20 00:06:03;;;;;;;12.60;2.73;;;;;;;;;;5522238;25;20648;-72
2024/04/20 00:08:31;;;;;;;7.97;2.60;;;;;;;;;;5523239;25;20614;-72
2024/04/20 00:10:56;;;;;;;10.33;2.57;;;;;;;;;;5519574;25;20291;-72
2024/04/20 00:13:22;;;;;;;11.53;2.87;;;;;;;;;;5520845;25;20633;-72
2024/04/20 00:15:47;;;;;;;13.97;3.10;;;;;;;;;;5489626;25;20251;-72
2024/04/20 00:18:13;;;;;;;8.57;2.47;;;;;;;;;;5520009;25;20343;-71
2024/04/20 00:20:39;;;;;;;10.43;2.40;;;;;;;;;;5507975;25;20251;-72
2024/04/20 00:23:04;;;;;;;11.60;2.83;;;;;;;;;;5516861;25;20247;-72
2024/04/20 00:25:30;;;;;;;12.97;3.40;;;;;;;;;;5493899;25;20329;-72
2024/04/20 00:27:55;;;;;;;11.00;3.03;;;;;;;;;;5513035;25;20296;-72
2024/04/20 00:30:21;;;;;;;13.00;3.20;;;;;;;;;;5510258;25;20256;-72
2024/04/20 00:32:47;;;;;;;8.13;3.17;;;;;;;;;;5515011;26;20241;-71
2024/04/20 00:35:15;;;;;;;13.60;2.70;;;;;;;;;;5508587;25;20279;-73
2024/04/20 00:37:40;;;;;;;8.07;2.33;;;;;;;;;;5521582;25;20343;-72
2024/04/20 00:40:06;;;;;;;13.43;2.73;;;;;;;;;;5519300;25;20367;-72
2024/04/20 00:42:32;;;;;;;6.03;2.47;;;;;;;;;;5504005;25;20686;-71
2024/04/20 00:44:57;;;;;;;4.97;2.20;;;;;;;;;;5518180;25;20255;-71
2024/04/20 00:47:23;;;;;;;7.97;2.40;;;;;;;;;;5522549;25;20468;-72
2024/04/20 00:49:48;;;;;;;13.47;2.50;;;;;;;;;;5517853;25;20251;-72
2024/04/20 00:52:14;;;;;;;6.83;1.97;;;;;;;;;;5474090;25;20673;-71
2024/04/20 00:54:40;;;;;;;6.20;2.00;;;;;;;;;;5510561;25;20233;-71
2024/04/20 00:57:07;;;;;;;7.83;2.07;;;;;;;;;;5512673;25;20228;-72
2024/04/20 00:59:33;;;;;;;6.67;2.20;;;;;;;;;;5519095;25;20275;-72
2024/04/20 01:01:58;;;;;;;5.47;2.20;;;;;;;;;;5519359;25;20236;-71
2024/04/20 01:04:24;;;;;;;5.53;2.40;;;;;;;;;;5482772;26;20236;-72
2024/04/20 01:06:49;;;;;;;8.70;2.17;;;;;;;;;;5506224;25;20247;-71
2024/04/20 01:09:15;;;;;;;10.83;2.93;;;;;;;;;;5519902;25;20274;-71
2024/04/20 01:11:41;;;;;;;8.13;2.50;;;;;;;;;;5528743;25;20332;-72
2024/04/20 01:14:07;;;;;;;8.57;2.80;;;;;;;;;;5508930;25;20232;-72
2024/04/20 01:16:32;;;;;;;11.57;2.70;;;;;;;;;;5489410;26;20278;-71
2024/04/20 01:18:58;;;;;;;3.73;2.27;;;;;;;;;;5514265;25;20240;-72
2024/04/20 01:21:25;;;;;;;14.57;2.67;;;;;;;;;;5513650;25;20327;-72
2024/04/20 01:23:58;;;;;;;10.60;2.53;;;;;;;;;;5517939;25;20399;-72
2024/04/20 01:26:24;;;;;;;15.53;2.07;;;;;;;;;;5492142;25;20352;-72
2024/04/20 01:28:49;;;;;;;5.73;2.10;;;;;;;;;;5518587;25;20644;-72
2024/04/20 01:31:14;;;;;;;6.33;2.30;;;;;;;;;;5517043;25;20240;-72
2024/04/20 01:33:40;;;;;;;7.77;2.10;;;;;;;;;;5519394;25;20232;-72
2024/04/20 01:36:05;;;;;;;6.50;2.10;;;;;;;;;;5518663;25;20255;-73
2024/04/20 01:38:31;;;;;;;5.70;2.33;;;;;;;;;;5519568;25;20367;-74
2024/04/20 01:40:56;;;;;;;5.17;1.70;;;;;;;;;;5519963;25;20278;-71
2024/04/20 01:43:22;;;;;;;5.77;1.60;;;;;;;;;;5519069;25;20449;-72
2024/04/20 01:45:47;;;;;;;9.60;1.88;;;;;;;;;;5487103;25;20371;-73
2024/04/20 01:48:13;;;;;;;10.07;1.83;;;;;;;;;;5521527;25;20273;-72
2024/04/20 01:50:38;;;;;;;6.00;1.97;;;;;;;;;;5523541;25;20330;-73
2024/04/20 01:53:04;;;;;;;6.93;1.50;;;;;;;;;;5517247;25;20248;-73
2024/04/20 01:55:30;;;;;;;10.33;1.67;;;;;;;;;;5516380;25;20251;-73
2024/04/20 01:57:55;;;;;;;8.30;2.33;;;;;;;;;;5514443;25;20237;-72
2024/04/20 02:00:21;;;;;;;6.57;1.63;;;;;;;;;;5514741;25;20574;-71
2024/04/20 02:02:46;;;;;;;6.30;1.50;;;;;;;;;;5516313;25;20814;-73
2024/04/20 02:05:12;;;;;;;9.30;1.70;;;;;;;;;;5518703;25;20416;-72
2024/04/20 02:07:38;;;;;;;8.07;1.67;;;;;;;;;;5517418;25;20364;-72
2024/04/20 02:10:05;;;;;;;3.67;1.43;;;;;;;;;;5518521;25;20255;-72
2024/04/20 02:12:31;;;;;;;5.63;1.43;;;;;;;;;;5516568;25;20266;-72
2024/04/20 02:14:56;;;;;;;3.75;1.30;;;;;;;;;;5517204;25;20247;-73
2024/04/20 02:17:22;;;;;;;3.22;1.08;;;;;;;;;;5468288;25;20236;-72
2024/04/20 02:19:47;;;;;;;4.88;1.35;;;;;;;;;;5499439;25;20286;-74
2024/04/20 02:22:13;;;;;;;12.23;1.37;;;;;;;;;;5517762;25;20670;-72
2024/04/20 02:24:38;;;;;;;3.07;1.17;;;;;;;;;;5517293;25;20375;-73
2024/04/20 02:27:04;;;;;;;4.23;1.23;;;;;;;;;;5487156;26;20252;-74
2024/04/20 02:29:29;;;;;;;5.88;1.13;;;;;;;;;;5526327;25;20249;-75
2024/04/20 02:31:55;;;;;;;5.67;1.20;;;;;;;;;;5517586;25;20239;-72
2024/04/20 02:34:21;;;;;;;2.80;1.20;;;;;;;;;;5516845;25;20339;-71
2024/04/20 02:36:46;;;;;;;3.70;1.00;;;;;;;;;;5486578;26;20266;-73
2024/04/20 02:39:12;;;;;;;4.97;1.00;;;;;;;;;;5519492;25;20238;-72
2024/04/20 02:41:37;;;;;;;5.23;0.87;;;;;;;;;;5502760;25;20279;-74
2024/04/20 02:44:03;;;;;;;3.17;1.00;;;;;;;;;;5516396;25;20723;-73
2024/04/20 02:46:29;;;;;;;1.83;0.73;;;;;;;;;;5517808;25;20270;-72
2024/04/20 02:48:54;;;;;;;6.10;1.63;;;;;;;;;;5516719;25;20973;-72
2024/04/20 02:51:20;;;;;;;3.83;0.83;;;;;;;;;;5517906;25;20728;-73
2024/04/20 02:53:45;;;;;;;3.20;0.80;;;;;;;;;;5515418;25;20235;-73
2024/04/20 02:56:10;;;;;;;3.87;0.90;;;;;;;;;;5518106;25;20232;-71
2024/04/20 02:58:36;;;;;;;9.10;1.37;;;;;;;;;;5517405;25;20282;-72
2024/04/20 03:01:02;;;;;;;4.77;1.07;;;;;;;;;;5551140;25;20244;-72
2024/04/20 03:03:30;;;;;;;5.03;0.93;;;;;;;;;;5521035;25;20556;-72
2024/04/20 03:05:55;;;;;;;3.83;1.03;;;;;;;;;;5521759;25;20739;-72
2024/04/20 03:08:21;;;;;;;1.37;0.67;;;;;;;;;;5489515;26;20271;-72
2024/04/20 03:10:46;;;;;;;6.30;0.90;;;;;;;;;;5523306;25;20240;-72
2024/04/20 03:13:12;;;;;;;4.23;0.67;;;;;;;;;;5519587;26;20257;-73
2024/04/20 03:15:39;;;;;;;4.77;1.03;;;;;;;;;;5487585;26;20355;-72
2024/04/20 03:18:05;;;;;;;2.70;1.10;;;;;;;;;;5496745;25;20244;-73
2024/04/20 03:20:30;;;;;;;4.50;1.10;;;;;;;;;;5530918;25;20777;-73
2024/04/20 03:22:56;;;;;;;2.53;0.70;;;;;;;;;;5524298;25;20763;-73
2024/04/20 03:25:21;;;;;;;5.03;1.10;;;;;;;;;;5487428;26;20243;-73
2024/04/20 03:27:47;;;;;;;4.27;0.87;;;;;;;;;;5520609;25;20235;-74
2024/04/20 03:30:12;;;;;;;3.97;0.83;;;;;;;;;;5518911;25;20243;-74
2024/04/20 03:32:38;;;;;;;8.80;0.87;;;;;;;;;;5521917;25;20236;-73
2024/04/20 03:35:04;;;;;;;5.60;1.10;;;;;;;;;;5520854;25;20286;-73
2024/04/20 03:37:30;;;;;;;3.63;1.10;;;;;;;;;;5520139;25;20239;-73
2024/04/20 03:39:55;;;;;;;5.10;1.07;;;;;;;;;;5518091;25;20235;-72
2024/04/20 03:42:21;;;;;;;4.33;1.10;;;;;;;;;;5529284;25;20236;-72
2024/04/20 03:44:46;;;;;;;4.50;0.93;;;;;;;;;;5521242;25;20240;-73
2024/04/20 03:47:12;;;;;;;2.73;0.90;;;;;;;;;;5490141;26;20268;-72
2024/04/20 03:49:37;;;;;;;2.70;0.73;;;;;;;;;;5518068;25;20243;-72
2024/04/20 03:52:03;;;;;;;2.60;0.70;;;;;;;;;;5503033;25;21757;-73
2024/04/20 03:54:28;;;;;;;6.90;1.30;;;;;;;;;;5519730;25;20266;-72
2024/04/20 03:56:54;;;;;;;3.70;1.00;;;;;;;;;;5520669;25;20274;-72
2024/04/20 03:59:19;;;;;;;3.87;1.03;;;;;;;;;;5493318;25;20338;-71
2024/04/20 04:01:45;;;;;;;4.10;1.10;;;;;;;;;;5516889;25;20234;-71
2024/04/20 04:04:10;;;;;;;6.17;1.10;;;;;;;;;;5521097;25;20232;-73
2024/04/20 04:06:36;;;;;;;9.40;1.40;;;;;;;;;;5489250;26;20243;-74
2024/04/20 04:09:01;;;;;;;5.33;1.23;;;;;;;;;;5519915;25;20417;-73
2024/04/20 04:11:27;;;;;;;3.10;1.20;;;;;;;;;;5521049;25;20232;-70
2024/04/20 04:13:52;;;;;;;3.07;1.10;;;;;;;;;;5511310;25;20274;-73
2024/04/20 04:16:18;;;;;;;4.20;1.00;;;;;;;;;;5508272;25;20241;-71
2024/04/20 04:18:43;;;;;;;7.90;1.20;;;;;;;;;;5533967;25;20370;-72
2024/04/20 04:21:10;;;;;;;2.93;0.80;;;;;;;;;;5517866;25;20234;-71
2024/04/20 04:23:37;;;;;;;7.23;1.00;;;;;;;;;;5521548;25;20624;-72
2024/04/20 04:26:03;;;;;;;3.90;0.73;;;;;;;;;;5515565;25;20247;-73
2024/04/20 04:28:29;;;;;;;3.57;1.23;;;;;;;;;;5521482;25;20235;-71
2024/04/20 04:30:55;;;;;;;7.10;0.90;;;;;;;;;;5518121;25;20608;-72
2024/04/20 04:33:20;;;;;;;14.00;1.27;;;;;;;;;;5524789;25;20263;-72
2024/04/20 04:35:46;;;;;;;3.47;0.80;;;;;;;;;;5518943;25;20284;-74
2024/04/20 04:38:11;;;;;;;2.33;0.80;;;;;;;;;;5506816;26;20248;-73
2024/04/20 04:40:37;;;;;;;4.40;0.80;;;;;;;;;;5510225;25;20227;-74
2024/04/20 04:43:02;;;;;;;5.40;1.10;;;;;;;;;;5510600;25;20234;-73
2024/04/20 04:45:29;;;;;;;5.00;0.60;;;;;;;;;;5532741;25;20332;-74
2024/04/20 04:47:55;;;;;;;2.30;0.60;;;;;;;;;;5491577;25;20287;-73
2024/04/20 04:50:20;;;;;;;2.47;0.53;;;;;;;;;;5511082;25;20310;-73
2024/04/20 04:52:46;;;;;;;3.00;0.43;;;;;;;;;;5517004;25;20794;-74
2024/04/20 04:55:11;;;;;;;6.80;0.97;;;;;;;;;;5491454;26;20252;-73
2024/04/20 04:57:36;;;;;;;2.93;0.53;;;;;;;;;;5507800;25;20240;-72
2024/04/20 05:00:02;;;;;;;4.57;0.50;;;;;;;;;;5519439;25;20244;-73
2024/04/20 05:02:28;;;;;;;6.27;0.97;;;;;;;;;;5519077;25;20297;-73
2024/04/20 05:04:53;;;;;;;1.10;0.40;;;;;;;;;;5526695;25;20331;-72
2024/04/20 05:07:19;;;;;;;4.80;0.70;;;;;;;;;;5514343;25;20567;-73
2024/04/20 05:09:44;;;;;;;1.90;0.47;;;;;;;;;;5519018;25;20247;-73
2024/04/20 05:12:10;;;;;;;1.20;0.40;;;;;;;;;;5518840;25;20447;-72
2024/04/20 05:14:35;;;;;;;4.73;0.93;;;;;;;;;;5520345;25;20593;-72
2024/04/20 05:17:00;;;;;;;2.90;0.60;;;;;;;;;;5520351;25;20244;-72
2024/04/20 05:19:26;;;;;;;2.00;0.57;;;;;;;;;;5518220;25;20239;-72
2024/04/20 05:21:51;;;;;;;4.30;0.77;;;;;;;;;;5517835;25;20270;-72
2024/04/20 05:24:17;;;;;;;3.07;0.40;;;;;;;;;;5473671;25;20254;-73
2024/04/20 05:26:43;;;;;;;0.70;0.40;;;;;;;;;;5519025;25;20248;-73
2024/04/20 05:29:08;;;;;;;4.53;0.70;;;;;;;;;;5518398;25;20714;-72
2024/04/20 05:31:34;;;;;;;3.63;0.60;;;;;;;;;;5516207;25;20888;-71
2024/04/20 05:33:59;;;;;;;2.77;0.60;;;;;;;;;;5528772;25;20262;-72
2024/04/20 05:36:24;;;;;;;7.43;0.70;;;;;;;;;;5512596;25;20236;-72
2024/04/20 05:38:50;;;;;;;5.50;0.87;;;;;;;;;;5513168;26;20282;-72
2024/04/20 05:41:15;;;;;;;8.20;0.50;;;;;;;;;;5518781;25;20285;-71
2024/04/20 05:43:41;;;;;;;2.37;0.60;;;;;;;;;;5526155;25;20239;-72
2024/04/20 05:46:07;;;;;;;4.67;0.47;;;;;;;;;;5475406;26;20340;-72
2024/04/20 05:48:34;;;;;;;3.97;0.63;;;;;;;;;;5517290;25;20290;-73
2024/04/20 05:51:00;;;;;;;5.30;0.53;;;;;;;;;;5516386;25;20236;-72
2024/04/20 05:53:25;;;;;;;2.63;0.47;;;;;;;;;;5510683;25;20277;-73
2024/04/20 05:55:51;;;;;;;5.50;0.77;;;;;;;;;;5520465;25;20231;-73
2024/04/20 05:58:16;;;;;;;5.57;0.70;;;;;;;;;;5483550;26;21075;-72
2024/04/20 06:00:42;;;;;;;1.73;0.43;;;;;;;;;;5517347;25;20392;-72
2024/04/20 06:03:08;;;;;;;2.87;0.50;;;;;;;;;;5499817;25;20231;-72
2024/04/20 06:05:33;;;;;;;2.50;0.53;;;;;;;;;;5484040;26;20857;-71
2024/04/20 06:07:59;;;;;;;4.27;0.73;;;;;;;;;;5484849;26;20335;-70
2024/04/20 06:10:24;;;;;;;3.97;0.47;;;;;;;;;;5516879;25;20278;-70
2024/04/20 06:12:49;;;;;;;3.30;0.50;;;;;;;;;;5515618;26;20262;-71
2024/04/20 06:15:15;;;;;;;1.13;0.40;;;;;;;;;;5520644;25;20581;-72
2024/04/20 06:17:40;;;;;;;1.93;0.60;;;;;;;;;;5513658;25;20279;-72
2024/04/20 06:20:06;;;;;;;2.20;0.30;;;;;;;;;;5518613;25;20312;-71
2024/04/20 06:22:32;;;;;;;0.90;0.50;;;;;;;;;;5511192;25;20920;-71
2024/04/20 06:24:58;;;;;;;2.53;0.30;;;;;;;;;;5487066;25;20246;-70
2024/04/20 06:27:24;;;;;;;2.43;0.40;;;;;;;;;;5512865;25;20313;-70
2024/04/20 06:29:50;;;;;;;2.97;1.23;;;;;;;;;;5517281;25;20243;-71
2024/04/20 06:32:16;;;;;;;3.83;0.70;;;;;;;;;;5485222;26;20659;-71
2024/04/20 06:34:42;;;;;;;2.57;0.50;;;;;;;;;;5515704;25;20273;-71
2024/04/20 06:37:09;;;;;;;3.10;0.70;;;;;;;;;;5478177;26;20251;-71
2024/04/20 06:39:35;;;;;;;4.33;0.40;;;;;;;;;;5519583;25;20231;-71
2024/04/20 06:42:01;;;;;;;3.73;0.50;;;;;;;;;;5517568;25;20291;-71
2024/04/20 06:44:27;;;;;;;4.63;0.50;;;;;;;;;;5515690;25;20251;-71
2024/04/20 06:46:54;;;;;;;3.80;0.40;;;;;;;;;;5494328;26;20267;-71
2024/04/20 06:49:20;;;;;;;2.03;0.40;;;;;;;;;;5518695;25;20231;-71
2024/04/20 06:51:45;;;;;;;3.83;0.63;;;;;;;;;;5497595;25;20725;-70
2024/04/20 06:54:11;;;;;;;3.00;0.30;;;;;;;;;;5488310;26;20741;-71
2024/04/20 06:56:36;;;;;;;3.57;0.50;;;;;;;;;;5482946;26;20634;-71
2024/04/20 06:59:01;;;;;;;2.77;0.67;;;;;;;;;;5511837;25;21033;-71
2024/04/20 07:01:27;;;;;;;4.97;0.50;;;;;;;;;;5519796;25;20750;-71
2024/04/20 07:03:52;;;;;;;2.13;0.50;;;;;;;;;;5499160;26;20468;-71
2024/04/20 07:06:18;;;;;;;3.27;0.50;;;;;;;;;;5515474;25;20614;-72
2024/04/20 07:08:43;;;;;;;3.27;0.50;;;;;;;;;;5520810;25;20228;-72
2024/04/20 07:11:09;;;;;;;4.80;0.60;;;;;;;;;;5517879;25;20236;-70
2024/04/20 07:13:39;;;;;;;2.57;0.50;;;;;;;;;;5520336;25;20238;-71
2024/04/20 07:16:05;;;;;;;4.22;0.63;;;;;;;;;;5518031;25;20239;-72
2024/04/20 07:18:31;;;;;;;4.68;0.88;;;;;;;;;;5521755;25;20277;-71
2024/04/20 07:21:04;;;;;;;4.13;0.60;;;;;;;;;;5519483;25;20738;-72
2024/04/20 07:23:30;;;;;;;7.10;0.80;;;;;;;;;;5519859;25;20793;-70
2024/04/20 07:26:04;;;;;;;5.13;0.68;;;;;;;;;;5487327;26;20695;-70
2024/04/20 07:28:29;;;;;;;1.33;0.47;;;;;;;;;;5509644;25;20236;-71
2024/04/20 07:30:55;;;;;;;10.30;1.30;;;;;;;;;;5520959;25;20358;-72
2024/04/20 07:33:21;;;;;;;5.88;0.70;;;;;;;;;;5520087;25;20232;-70
2024/04/20 07:35:47;;;;;;;6.53;1.10;;;;;;;;;;5522545;25;20244;-76
2024/04/20 07:38:13;;;;;;;5.25;0.65;;;;;;;;;;5515743;25;20239;-70
2024/04/20 07:40:38;;;;;;;7.28;1.00;;;;;;;;;;5519928;25;20285;-70
2024/04/20 07:43:05;;;;;;;5.40;0.77;;;;;;;;;;5519525;25;20311;-70
2024/04/20 07:45:30;;;;;;;6.53;1.13;;;;;;;;;;5521027;25;20249;-70
2024/04/20 07:47:56;;;;;;;8.13;1.15;;;;;;;;;;5513074;25;20278;-70
2024/04/20 07:50:22;;;;;;;6.07;1.75;;;;;;;;;;5520333;25;20731;-69
2024/04/20 07:52:48;;;;;;;2.78;0.55;;;;;;;;;;5521845;25;20259;-72
2024/04/20 07:55:14;;;;;;;3.42;0.60;;;;;;;;;;5488310;25;20696;-69
2024/04/20 07:57:40;;;;;;;5.90;1.00;;;;;;;;;;5516861;25;20261;-69
2024/04/20 08:00:06;;;;;;;3.78;0.52;;;;;;;;;;5514374;25;20800;-71
2024/04/20 08:02:32;;;;;;;6.30;1.00;;;;;;;;;;5497476;25;20295;-70
2024/04/20 08:04:57;;;;;;;7.20;0.88;;;;;;;;;;5521419;25;20232;-69
2024/04/20 08:07:23;;;;;;;2.95;0.70;;;;;;;;;;5518664;25;20571;-70
2024/04/20 08:09:48;;;;;;;4.78;0.88;;;;;;;;;;5522842;25;20280;-69
2024/04/20 08:12:14;;;;;;;4.45;0.50;;;;;;;;;;5520759;25;20240;-70
2024/04/20 08:14:39;;;;;;;3.78;0.50;;;;;;;;;;5550715;25;20270;-71
2024/04/20 08:17:05;;;;;;;6.85;0.70;;;;;;;;;;5533323;25;20254;-71
2024/04/20 08:19:30;;;;;;;3.53;0.63;;;;;;;;;;5506580;25;20232;-70
2024/04/20 08:21:56;;;;;;;2.90;0.65;;;;;;;;;;5520604;25;20227;-70
2024/04/20 08:24:21;;;;;;;3.25;0.68;;;;;;;;;;5521578;25;20227;-70
2024/04/20 08:26:46;;;;;;;3.53;0.77;;;;;;;;;;5514953;25;20315;-71
2024/04/20 08:29:12;;;;;;;4.93;0.73;;;;;;;;;;5520610;25;20232;-69
2024/04/20 08:31:37;;;;;;;2.53;0.75;;;;;;;;;;5503599;25;20297;-70
2024/04/20 08:34:04;;;;;;;6.25;0.60;;;;;;;;;;5502313;25;20278;-70
2024/04/20 08:36:29;;;;;;;4.93;0.70;;;;;;;;;;5525592;25;20235;-70
2024/04/20 08:38:55;;;;;;;4.25;0.60;;;;;;;;;;5520415;25;20364;-71
2024/04/20 08:41:24;;;;;;;3.92;0.90;;;;;;;;;;5519390;25;20239;-70
2024/04/20 08:43:51;;;;;;;5.55;0.70;;;;;;;;;;5518769;25;20282;-70
2024/04/20 08:46:17;;;;;;;6.00;0.90;;;;;;;;;;5515449;25;20269;-70
2024/04/20 08:48:45;;;;;;;5.20;0.70;;;;;;;;;;5488925;26;20235;-70
2024/04/20 08:51:13;;;;;;;5.05;0.80;;;;;;;;;;5516059;25;20658;-71
2024/04/20 08:53:45;;;;;;;7.13;1.20;;;;;;;;;;5514839;25;20442;-70
2024/04/20 08:56:10;;;;;;;5.63;0.88;;;;;;;;;;5511943;25;20688;-69
2024/04/20 08:58:36;;;;;;;2.95;0.70;;;;;;;;;;5510564;25;20240;-70
2024/04/20 09:01:04;;;;;;;5.55;1.02;;;;;;;;;;5518332;25;20682;-70
2024/04/20 09:03:31;;;;;;;5.13;0.80;;;;;;;;;;5510274;25;20470;-71
2024/04/20 09:05:57;;;;;;;4.90;0.82;;;;;;;;;;5519243;25;20742;-69
2024/04/20 09:08:24;;;;;;;11.70;1.20;;;;;;;;;;5524811;25;20227;-69
2024/04/20 09:10:50;;;;;;;9.23;1.25;;;;;;;;;;5514302;25;20695;-70
2024/04/20 09:13:18;;;;;;;5.68;1.05;;;;;;;;;;5496723;25;20250;-72
2024/04/20 09:15:45;;;;;;;5.68;0.77;;;;;;;;;;5487332;26;20239;-71
2024/04/20 09:18:10;;;;;;;6.55;1.10;;;;;;;;;;5485999;25;20763;-73
2024/04/20 09:20:36;;;;;;;4.40;0.70;;;;;;;;;;5511093;26;20508;-73
2024/04/20 09:23:06;;;;;;;4.38;0.50;;;;;;;;;;5506860;25;20390;-72
2024/04/20 09:25:32;;;;;;;6.60;0.93;;;;;;;;;;5482358;26;20255;-75
2024/04/20 09:27:59;;;;;;;6.15;0.98;;;;;;;;;;5517410;25;20257;-74
2024/04/20 09:30:25;;;;;;;4.03;0.77;;;;;;;;;;5500720;25;20322;-73
2024/04/20 09:32:52;;;;;;;9.43;1.15;;;;;;;;;;5506007;25;20270;-73
2024/04/20 09:35:19;;;;;;;8.98;1.48;;;;;;;;;;5514871;25;20223;-73
2024/04/20 09:37:45;;;;;;;8.55;0.88;;;;;;;;;;5515677;25;20247;-74
2024/04/20 09:40:12;;;;;;;3.83;0.77;;;;;;;;;;5491674;25;20580;-72
2024/04/20 09:42:45;;;;;;;4.32;0.98;;;;;;;;;;5514827;25;20462;-71
2024/04/20 09:45:11;;;;;;;6.35;0.80;;;;;;;;;;5516038;25;20316;-70
2024/04/20 09:47:37;;;;;;;6.18;0.85;;;;;;;;;;5512756;25;20239;-69
2024/04/20 09:50:10;;;;;;;3.15;0.60;;;;;;;;;;5520856;25;20585;-70
2024/04/20 09:52:50;;;;;;;6.65;0.95;;;;;;;;;;5515176;25;20580;-71
2024/04/20 09:55:25;;;;;;;5.75;1.15;;;;;;;;;;5494456;26;20327;-71
2024/04/20 09:57:51;;;;;;;5.30;0.82;;;;;;;;;;5508851;25;20239;-73
2024/04/20 10:00:19;;;;;;;5.38;0.45;;;;;;;;;;5483787;26;20240;-73
2024/04/20 10:02:45;;;;;;;6.03;0.80;;;;;;;;;;5485884;26;20236;-73
2024/04/20 10:05:12;;;;;;;6.07;0.52;;;;;;;;;;5522370;25;20417;-73
2024/04/20 10:07:39;;;;;;;5.75;0.88;;;;;;;;;;5520952;25;20235;-73
2024/04/20 10:10:04;;;;;;;4.63;0.90;;;;;;;;;;5487113;26;20251;-72
2024/04/20 10:12:31;;;;;;;4.93;0.80;;;;;;;;;;5479335;26;20263;-73
2024/04/20 10:14:57;;;;;;;6.53;1.05;;;;;;;;;;5521723;25;20235;-74
2024/04/20 10:17:26;;;;;;;8.80;1.00;;;;;;;;;;5521181;25;20259;-72
2024/04/20 10:19:52;;;;;;;5.28;0.75;;;;;;;;;;5519986;26;20326;-72
2024/04/20 10:22:22;;;;;;;3.05;0.70;;;;;;;;;;5473766;26;20248;-74
2024/04/20 10:25:00;;;;;;;3.38;0.65;;;;;;;;;;5516050;25;20285;-72
2024/04/20 10:27:31;;;;;;;3.65;0.60;;;;;;;;;;5498347;25;20418;-72
2024/04/20 10:30:19;;;;;;;5.13;0.45;;;;;;;;;;5506551;25;20318;-72
2024/04/20 10:32:45;;;;;;;2.40;0.50;;;;;;;;;;5519918;26;20235;-73
2024/04/20 10:35:16;;;;;;;1.92;0.40;;;;;;;;;;5521803;25;20262;-71
2024/04/20 10:37:41;;;;;;;1.05;0.40;;;;;;;;;;5518211;25;20324;-71
2024/04/20 10:40:13;;;;;;;4.88;0.60;;;;;;;;;;5521708;25;20239;-71
2024/04/20 10:42:40;;;;;;;1.80;0.50;;;;;;;;;;5519219;25;20232;-73
2024/04/20 10:45:06;;;;;;;3.53;0.80;;;;;;;;;;5485383;25;20239;-71
2024/04/20 10:47:36;;;;;;;5.82;0.85;;;;;;;;;;5511571;25;20247;-74
2024/04/20 10:50:01;;;;;;;5.68;0.60;;;;;;;;;;5504289;25;20579;-73
2024/04/20 10:52:27;;;;;;;4.03;1.08;;;;;;;;;;5545395;25;20257;-72
2024/04/20 10:54:53;;;;;;;5.50;1.17;;;;;;;;;;5532726;25;20386;-74
2024/04/20 10:57:19;;;;;;;5.43;0.80;;;;;;;;;;5537479;25;20243;-72
2024/04/20 10:59:45;;;;;;;3.75;0.75;;;;;;;;;;5471307;26;20754;-70
2024/04/20 11:02:14;;;;;;;4.35;0.80;;;;;;;;;;5480159;25;20239;-71
2024/04/20 11:04:42;;;;;;;5.75;0.73;;;;;;;;;;5520208;25;20239;-74
2024/04/20 11:07:07;;;;;;;8.27;1.30;;;;;;;;;;5518460;25;20324;-71
2024/04/20 11:09:34;;;;;;;5.53;1.20;;;;;;;;;;5543483;25;20232;-74
2024/04/20 11:12:01;;;;;;;6.60;0.95;;;;;;;;;;5487888;26;20277;-72
2024/04/20 11:14:28;;;;;;;3.55;0.80;;;;;;;;;;5518405;25;20273;-68
2024/04/20 11:16:54;;;;;;;2.88;0.80;;;;;;;;;;5518530;25;20232;-70
2024/04/20 11:19:20;;;;;;;4.07;0.55;;;;;;;;;;5517648;25;20251;-69
2024/04/20 11:21:46;;;;;;;4.18;0.70;;;;;;;;;;5517067;25;20235;-72
2024/04/20 11:24:12;;;;;;;4.20;0.70;;;;;;;;;;5529338;25;20283;-73
2024/04/20 11:26:37;;;;;;;5.13;1.00;;;;;;;;;;5528183;25;20644;-75
2024/04/20 11:29:04;;;;;;;5.05;1.08;;;;;;;;;;5523337;25;20718;-75
2024/04/20 11:31:29;;;;;;;5.10;0.90;;;;;;;;;;5487181;25;20263;-74
2024/04/20 11:33:55;;;;;;;4.68;0.65;;;;;;;;;;5540803;25;20234;-72
2024/04/20 11:36:20;;;;;;;3.72;0.60;;;;;;;;;;5495710;26;20330;-72
2024/04/20 11:38:46;;;;;;;2.75;0.50;;;;;;;;;;5523768;25;20673;-72
2024/04/20 11:41:38;;;;;;;2.83;0.43;;;;;;;;;;5487068;26;20545;-72
2024/04/20 11:44:06;;;;;;;2.45;0.50;;;;;;;;;;5511041;25;20703;-73
2024/04/20 11:46:41;;;;;;;0.80;0.40;;;;;;;;;;5511357;25;20229;-72
2024/04/20 11:49:15;;;;;;;1.70;0.30;;;;;;;;;;5504716;25;20570;-72
2024/04/20 11:54:47;;;;;;;3.95;0.38;;;;;;;;;;5507562;25;20839;-75
2024/04/20 11:57:13;;;;;;;1.38;0.20;;;;;;;;;;5512114;25;20294;-71
2024/04/20 11:59:38;;;;;;;2.03;0.40;;;;;;;;;;5519692;25;20279;-74
2024/04/20 12:02:05;;;;;;;3.97;0.70;;;;;;;;;;5517502;25;20295;-73
2024/04/20 12:04:31;;;;;;;3.92;0.90;;;;;;;;;;5529540;25;21116;-71
2024/04/20 12:06:58;;;;;;;4.63;0.90;;;;;;;;;;5533792;25;20244;-74
2024/04/20 12:09:25;;;;;;;7.28;1.80;;;;;;;;;;5521856;25;20288;-75
2024/04/20 12:11:51;;;;;;;6.85;1.20;;;;;;;;;;5492771;26;20244;-73
2024/04/20 12:14:16;;;;;;;4.75;1.10;;;;;;;;;;5519183;25;20660;-71
2024/04/20 12:16:42;;;;;;;6.65;1.45;;;;;;;;;;5523895;25;20231;-69
2024/04/20 12:19:08;;;;;;;3.95;0.68;;;;;;;;;;5496324;25;20682;-70
2024/04/20 12:21:33;;;;;;;2.60;0.55;;;;;;;;;;5518976;25;20248;-74
2024/04/20 12:23:59;;;;;;;2.15;0.60;;;;;;;;;;5489439;26;20235;-74
2024/04/20 12:26:24;;;;;;;3.72;0.40;;;;;;;;;;5486830;26;20236;-71
2024/04/20 12:28:50;;;;;;;2.60;0.40;;;;;;;;;;5520933;25;20766;-73
2024/04/20 12:31:15;;;;;;;4.32;0.60;;;;;;;;;;5518762;25;20240;-72
2024/04/20 12:33:41;;;;;;;4.20;0.55;;;;;;;;;;5521183;25;20363;-71
2024/04/20 12:36:14;;;;;;;8.82;0.75;;;;;;;;;;5515437;25;20326;-72
2024/04/20 12:38:39;;;;;;;2.78;0.60;;;;;;;;;;5498614;26;20267;-70
2024/04/20 12:41:05;;;;;;;5.05;0.70;;;;;;;;;;5517794;25;20588;-71
2024/04/20 12:43:31;;;;;;;5.93;0.93;;;;;;;;;;5518172;25;20347;-71
2024/04/20 12:45:56;;;;;;;5.72;0.85;;;;;;;;;;5501427;25;20315;-72
2024/04/20 12:48:23;;;;;;;4.47;0.98;;;;;;;;;;5514399;25;20240;-71
2024/04/20 12:50:53;;;;;;;5.45;0.75;;;;;;;;;;5505441;25;20301;-74
2024/04/20 12:53:19;;;;;;;3.00;1.20;;;;;;;;;;5518848;25;20239;-73
2024/04/20 12:55:45;;;;;;;5.07;0.73;;;;;;;;;;5521127;25;20336;-73
2024/04/20 12:58:10;;;;;;;2.85;0.80;;;;;;;;;;5524346;25;20348;-74
2024/04/20 13:00:37;;;;;;;5.32;1.30;;;;;;;;;;5488326;25;20240;-73
2024/04/20 13:03:04;;;;;;;5.68;0.88;;;;;;;;;;5519207;25;20243;-71
2024/04/20 13:05:30;;;;;;;3.47;1.08;;;;;;;;;;5520202;25;20824;-72
2024/04/20 13:07:55;;;;;;;4.55;0.93;;;;;;;;;;5542328;25;20228;-73
2024/04/20 13:10:21;;;;;;;5.57;0.95;;;;;;;;;;5509686;25;20335;-75
2024/04/20 13:12:47;;;;;;;3.85;0.98;;;;;;;;;;5518504;25;20656;-70
2024/04/20 13:15:15;;;;;;;3.90;0.60;;;;;;;;;;5521196;25;20283;-72
2024/04/20 13:17:40;;;;;;;2.88;0.68;;;;;;;;;;5506372;25;20251;-72
2024/04/20 13:20:06;;;;;;;1.25;0.45;;;;;;;;;;5528537;25;20274;-73
2024/04/20 13:22:31;;;;;;;3.58;0.40;;;;;;;;;;5522804;25;20236;-73
2024/04/20 13:24:57;;;;;;;1.75;0.45;;;;;;;;;;5521076;25;20274;-74
2024/04/20 13:27:23;;;;;;;2.15;0.35;;;;;;;;;;5507309;25;20794;-74
2024/04/20 13:29:48;;;;;;;4.68;0.68;;;;;;;;;;5517337;25;20278;-74
2024/04/20 13:32:15;;;;;;;3.35;0.82;;;;;;;;;;5492471;25;20253;-73
2024/04/20 13:34:40;;;;;;;1.50;0.50;;;;;;;;;;5518984;25;21266;-73
2024/04/20 13:37:13;;;;;;;3.17;0.70;;;;;;;;;;5507394;25;20259;-72
2024/04/20 13:39:38;;;;;;;8.10;0.95;;;;;;;;;;5514421;25;20330;-76
2024/04/20 13:42:04;;;;;;;4.28;0.80;;;;;;;;;;5495760;25;20716;-74
2024/04/20 13:44:32;;;;;;;5.85;0.73;;;;;;;;;;5519426;25;20593;-73
2024/04/20 13:46:58;;;;;;;3.83;0.90;;;;;;;;;;5516208;25;20802;-70
2024/04/20 13:49:24;;;;;;;4.28;0.90;;;;;;;;;;5507878;25;20584;-72
2024/04/20 13:51:49;;;;;;;4.00;0.95;;;;;;;;;;5516628;25;20240;-72
2024/04/20 13:54:15;;;;;;;7.97;1.00;;;;;;;;;;5503975;25;20265;-72
2024/04/20 13:56:41;;;;;;;4.22;0.77;;;;;;;;;;5510173;25;20275;-72
2024/04/20 13:59:06;;;;;;;4.13;0.90;;;;;;;;;;5501540;25;20239;-71
2024/04/20 14:01:32;;;;;;;3.85;0.70;;;;;;;;;;5503988;25;20248;-72
2024/04/20 14:03:58;;;;;;;3.35;0.63;;;;;;;;;;5518216;25;20297;-73
2024/04/20 14:06:24;;;;;;;5.93;0.70;;;;;;;;;;5485632;26;20247;-74
2024/04/20 14:08:49;;;;;;;2.42;0.50;;;;;;;;;;5518218;25;20239;-74
2024/04/20 14:11:16;;;;;;;3.72;0.70;;;;;;;;;;5520885;25;20231;-75
2024/04/20 14:13:42;;;;;;;3.55;1.05;;;;;;;;;;5518168;25;20235;-73
2024/04/20 14:16:07;;;;;;;6.35;0.95;;;;;;;;;;5517087;25;20254;-73
2024/04/20 14:18:33;;;;;;;3.22;1.30;;;;;;;;;;5520072;25;20239;-75
2024/04/20 14:21:03;;;;;;;7.38;1.13;;;;;;;;;;5519607;25;20239;-74
2024/04/20 14:23:30;;;;;;;4.63;0.85;;;;;;;;;;5516136;25;20301;-75
2024/04/20 14:26:00;;;;;;;2.60;0.80;;;;;;;;;;5480155;25;20238;-75
2024/04/20 14:28:26;;;;;;;2.30;0.45;;;;;;;;;;5516462;25;20231;-74
2024/04/20 14:31:02;;;;;;;2.22;0.82;;;;;;;;;;5484858;26;20312;-74
2024/04/20 14:33:30;;;;;;;5.13;0.80;;;;;;;;;;5497350;25;20556;-73
2024/04/20 14:35:55;;;;;;;4.97;0.75;;;;;;;;;;5522776;25;20274;-72
2024/04/20 14:38:21;;;;;;;2.58;0.60;;;;;;;;;;5519922;25;20255;-73
2024/04/20 14:40:50;;;;;;;3.75;0.80;;;;;;;;;;5518873;25;20568;-73